sensor_id;sensor_type;location;lat;lon;timestamp;P1;durP1;ratioP1;P2;durP2;ratioP2
5077;SDS011;2557;51.390;7.494;2023-11-22T00:00:09;18.17;;;12.65;;
5077;SDS011;2557;51.390;7.494;2023-11-22T00:02:35;15.40;;;10.93;;
5077;SDS011;2557;51.390;7.494;2023-11-22T00:05:02;18.55;;;12.18;;
5077;SDS011;2557;51.390;7.494;2023-11-22T00:07:28;16.27;;;12.75;;
5077;SDS011;2557;51.390;7.494;2023-11-22T00:09:54;17.23;;;12.50;;
5077;SDS011;2557;51.390;7.494;2023-11-22T00:12:20;16.58;;;11.23;;
5077;SDS011;2557;51.390;7.494;2023-11-22T00:14:48;18.20;;;10.25;;
5077;SDS011;2557;51.390;7.494;2023-11-22T00:17:14;13.50;;;10.68;;
5077;SDS011;2557;51.390;7.494;2023-11-22T00:19:42;16.60;;;11.40;;
5077;SDS011;2557;51.390;7.494;2023-11-22T00:22:09;15.27;;;10.70;;
5077;SDS011;2557;51.390;7.494;2023-11-22T00:24:38;15.68;;;11.13;;
5077;SDS011;2557;51.390;7.494;2023-11-22T00:27:05;16.17;;;10.23;;
5077;SDS011;2557;51.390;7.494;2023-11-22T00:29:31;14.18;;;10.77;;
5077;SDS011;2557;51.390;7.494;2023-11-22T00:31:57;20.20;;;11.43;;
5077;SDS011;2557;51.390;7.494;2023-11-22T00:34:24;17.27;;;12.60;;
5077;SDS011;2557;51.390;7.494;2023-11-22T00:36:50;16.77;;;10.88;;
5077;SDS011;2557;51.390;7.494;2023-11-22T00:39:16;18.70;;;11.18;;
5077;SDS011;2557;51.390;7.494;2023-11-22T00:41:42;13.45;;;10.55;;
5077;SDS011;2557;51.390;7.494;2023-11-22T00:44:09;13.73;;;9.90;;
5077;SDS011;2557;51.390;7.494;2023-11-22T00:46:35;13.80;;;10.35;;
5077;SDS011;2557;51.390;7.494;2023-11-22T00:49:02;14.60;;;11.60;;
5077;SDS011;2557;51.390;7.494;2023-11-22T00:51:29;16.45;;;10.82;;
5077;SDS011;2557;51.390;7.494;2023-11-22T00:56:33;16.55;;;11.40;;
5077;SDS011;2557;51.390;7.494;2023-11-22T00:58:59;15.40;;;10.80;;
5077;SDS011;2557;51.390;7.494;2023-11-22T01:01:27;14.60;;;10.45;;
5077;SDS011;2557;51.390;7.494;2023-11-22T01:03:54;16.52;;;11.00;;
5077;SDS011;2557;51.390;7.494;2023-11-22T01:06:20;16.00;;;11.87;;
5077;SDS011;2557;51.390;7.494;2023-11-22T01:08:47;19.40;;;10.90;;
5077;SDS011;2557;51.390;7.494;2023-11-22T01:11:13;13.20;;;10.80;;
5077;SDS011;2557;51.390;7.494;2023-11-22T01:13:39;15.15;;;10.88;;
5077;SDS011;2557;51.390;7.494;2023-11-22T01:16:07;16.15;;;11.10;;
5077;SDS011;2557;51.390;7.494;2023-11-22T01:18:33;19.77;;;12.00;;
5077;SDS011;2557;51.390;7.494;2023-11-22T01:21:00;24.20;;;13.30;;
5077;SDS011;2557;51.390;7.494;2023-11-22T01:23:26;13.17;;;11.17;;
5077;SDS011;2557;51.390;7.494;2023-11-22T01:25:54;18.65;;;11.93;;
5077;SDS011;2557;51.390;7.494;2023-11-22T01:28:20;16.58;;;12.10;;
5077;SDS011;2557;51.390;7.494;2023-11-22T01:30:46;20.08;;;13.27;;
5077;SDS011;2557;51.390;7.494;2023-11-22T01:33:14;21.13;;;12.88;;
5077;SDS011;2557;51.390;7.494;2023-11-22T01:35:40;21.33;;;13.00;;
5077;SDS011;2557;51.390;7.494;2023-11-22T01:38:06;20.40;;;13.40;;
5077;SDS011;2557;51.390;7.494;2023-11-22T01:40:32;21.75;;;13.70;;
5077;SDS011;2557;51.390;7.494;2023-11-22T01:42:58;21.25;;;13.38;;
5077;SDS011;2557;51.390;7.494;2023-11-22T01:45:25;17.92;;;13.45;;
5077;SDS011;2557;51.390;7.494;2023-11-22T01:47:51;19.95;;;13.38;;
5077;SDS011;2557;51.390;7.494;2023-11-22T01:50:17;19.77;;;13.90;;
5077;SDS011;2557;51.390;7.494;2023-11-22T01:52:43;19.38;;;13.90;;
5077;SDS011;2557;51.390;7.494;2023-11-22T01:55:10;21.27;;;13.43;;
5077;SDS011;2557;51.390;7.494;2023-11-22T01:57:36;19.40;;;13.30;;
5077;SDS011;2557;51.390;7.494;2023-11-22T02:00:03;22.17;;;13.13;;
5077;SDS011;2557;51.390;7.494;2023-11-22T02:02:32;19.45;;;13.20;;
5077;SDS011;2557;51.390;7.494;2023-11-22T02:04:58;18.83;;;13.95;;
5077;SDS011;2557;51.390;7.494;2023-11-22T02:07:26;20.85;;;14.20;;
5077;SDS011;2557;51.390;7.494;2023-11-22T02:09:53;18.63;;;12.10;;
5077;SDS011;2557;51.390;7.494;2023-11-22T02:12:19;22.20;;;12.85;;
5077;SDS011;2557;51.390;7.494;2023-11-22T02:14:45;17.38;;;13.10;;
5077;SDS011;2557;51.390;7.494;2023-11-22T02:17:11;21.48;;;13.63;;
5077;SDS011;2557;51.390;7.494;2023-11-22T02:19:38;22.92;;;14.27;;
5077;SDS011;2557;51.390;7.494;2023-11-22T02:22:04;21.90;;;13.27;;
5077;SDS011;2557;51.390;7.494;2023-11-22T02:24:30;18.60;;;11.23;;
5077;SDS011;2557;51.390;7.494;2023-11-22T02:26:58;18.90;;;13.25;;
5077;SDS011;2557;51.390;7.494;2023-11-22T02:29:24;17.53;;;13.30;;
5077;SDS011;2557;51.390;7.494;2023-11-22T02:31:50;16.63;;;11.45;;
5077;SDS011;2557;51.390;7.494;2023-11-22T02:34:16;16.60;;;11.95;;
5077;SDS011;2557;51.390;7.494;2023-11-22T02:36:42;17.60;;;11.38;;
5077;SDS011;2557;51.390;7.494;2023-11-22T02:39:08;16.42;;;11.20;;
5077;SDS011;2557;51.390;7.494;2023-11-22T02:41:34;18.80;;;12.18;;
5077;SDS011;2557;51.390;7.494;2023-11-22T02:46:57;16.35;;;10.43;;
5077;SDS011;2557;51.390;7.494;2023-11-22T02:49:24;13.13;;;8.65;;
5077;SDS011;2557;51.390;7.494;2023-11-22T02:51:50;15.63;;;8.83;;
5077;SDS011;2557;51.390;7.494;2023-11-22T02:54:16;9.83;;;7.53;;
5077;SDS011;2557;51.390;7.494;2023-11-22T02:56:42;9.52;;;7.80;;
5077;SDS011;2557;51.390;7.494;2023-11-22T02:59:08;11.00;;;7.87;;
5077;SDS011;2557;51.390;7.494;2023-11-22T03:01:38;9.57;;;7.47;;
5077;SDS011;2557;51.390;7.494;2023-11-22T03:04:07;11.27;;;8.13;;
5077;SDS011;2557;51.390;7.494;2023-11-22T03:06:34;11.77;;;8.18;;
5077;SDS011;2557;51.390;7.494;2023-11-22T03:09:01;9.65;;;6.97;;
5077;SDS011;2557;51.390;7.494;2023-11-22T03:11:27;11.90;;;8.38;;
5077;SDS011;2557;51.390;7.494;2023-11-22T03:13:53;10.52;;;8.60;;
5077;SDS011;2557;51.390;7.494;2023-11-22T03:16:19;10.35;;;7.85;;
5077;SDS011;2557;51.390;7.494;2023-11-22T03:18:45;14.27;;;6.77;;
5077;SDS011;2557;51.390;7.494;2023-11-22T03:21:11;9.93;;;7.67;;
5077;SDS011;2557;51.390;7.494;2023-11-22T03:23:37;13.43;;;6.80;;
5077;SDS011;2557;51.390;7.494;2023-11-22T03:26:05;9.05;;;7.63;;
5077;SDS011;2557;51.390;7.494;2023-11-22T03:28:31;9.63;;;7.37;;
5077;SDS011;2557;51.390;7.494;2023-11-22T03:30:58;12.13;;;7.80;;
5077;SDS011;2557;51.390;7.494;2023-11-22T03:33:24;11.80;;;7.60;;
5077;SDS011;2557;51.390;7.494;2023-11-22T03:35:51;10.68;;;7.28;;
5077;SDS011;2557;51.390;7.494;2023-11-22T03:38:17;10.30;;;7.10;;
5077;SDS011;2557;51.390;7.494;2023-11-22T03:40:43;10.15;;;6.85;;
5077;SDS011;2557;51.390;7.494;2023-11-22T03:43:10;12.05;;;6.75;;
5077;SDS011;2557;51.390;7.494;2023-11-22T03:45:37;7.00;;;6.07;;
5077;SDS011;2557;51.390;7.494;2023-11-22T03:48:03;12.82;;;7.97;;
5077;SDS011;2557;51.390;7.494;2023-11-22T03:50:29;14.00;;;7.45;;
5077;SDS011;2557;51.390;7.494;2023-11-22T03:52:55;9.00;;;6.20;;
5077;SDS011;2557;51.390;7.494;2023-11-22T03:55:21;8.00;;;7.20;;
5077;SDS011;2557;51.390;7.494;2023-11-22T03:57:48;10.95;;;6.90;;
5077;SDS011;2557;51.390;7.494;2023-11-22T04:00:14;12.57;;;7.40;;
5077;SDS011;2557;51.390;7.494;2023-11-22T04:02:40;10.88;;;6.88;;
5077;SDS011;2557;51.390;7.494;2023-11-22T04:05:06;12.30;;;7.70;;
5077;SDS011;2557;51.390;7.494;2023-11-22T04:07:33;11.25;;;8.73;;
5077;SDS011;2557;51.390;7.494;2023-11-22T04:09:59;8.33;;;7.23;;
5077;SDS011;2557;51.390;7.494;2023-11-22T04:12:25;13.30;;;8.03;;
5077;SDS011;2557;51.390;7.494;2023-11-22T04:14:51;14.98;;;8.55;;
5077;SDS011;2557;51.390;7.494;2023-11-22T04:17:17;10.90;;;7.70;;
5077;SDS011;2557;51.390;7.494;2023-11-22T04:19:43;12.40;;;7.47;;
5077;SDS011;2557;51.390;7.494;2023-11-22T04:22:09;9.70;;;7.67;;
5077;SDS011;2557;51.390;7.494;2023-11-22T04:24:35;14.98;;;8.20;;
5077;SDS011;2557;51.390;7.494;2023-11-22T04:27:02;10.57;;;7.57;;
5077;SDS011;2557;51.390;7.494;2023-11-22T04:29:28;12.02;;;7.55;;
5077;SDS011;2557;51.390;7.494;2023-11-22T04:31:54;11.45;;;6.68;;
5077;SDS011;2557;51.390;7.494;2023-11-22T04:34:20;12.30;;;7.50;;
5077;SDS011;2557;51.390;7.494;2023-11-22T04:36:46;9.80;;;7.13;;
5077;SDS011;2557;51.390;7.494;2023-11-22T04:39:12;13.33;;;7.43;;
5077;SDS011;2557;51.390;7.494;2023-11-22T04:41:38;12.13;;;7.73;;
5077;SDS011;2557;51.390;7.494;2023-11-22T04:44:04;13.75;;;8.23;;
5077;SDS011;2557;51.390;7.494;2023-11-22T04:46:31;9.02;;;7.03;;
5077;SDS011;2557;51.390;7.494;2023-11-22T04:48:57;12.02;;;7.88;;
5077;SDS011;2557;51.390;7.494;2023-11-22T04:51:23;10.40;;;6.97;;
5077;SDS011;2557;51.390;7.494;2023-11-22T04:53:49;17.98;;;7.50;;
5077;SDS011;2557;51.390;7.494;2023-11-22T04:56:16;13.50;;;8.82;;
5077;SDS011;2557;51.390;7.494;2023-11-22T04:58:42;13.75;;;7.03;;
5077;SDS011;2557;51.390;7.494;2023-11-22T05:01:08;13.83;;;8.40;;
5077;SDS011;2557;51.390;7.494;2023-11-22T05:03:34;13.02;;;8.98;;
5077;SDS011;2557;51.390;7.494;2023-11-22T05:06:00;9.02;;;7.25;;
5077;SDS011;2557;51.390;7.494;2023-11-22T05:08:26;13.70;;;8.70;;
5077;SDS011;2557;51.390;7.494;2023-11-22T05:10:52;16.23;;;9.60;;
5077;SDS011;2557;51.390;7.494;2023-11-22T05:13:19;9.32;;;7.03;;
5077;SDS011;2557;51.390;7.494;2023-11-22T05:15:45;11.95;;;8.15;;
5077;SDS011;2557;51.390;7.494;2023-11-22T05:18:11;13.73;;;7.80;;
5077;SDS011;2557;51.390;7.494;2023-11-22T05:20:37;9.88;;;7.38;;
5077;SDS011;2557;51.390;7.494;2023-11-22T05:23:04;10.05;;;7.50;;
5077;SDS011;2557;51.390;7.494;2023-11-22T05:25:30;12.03;;;7.50;;
5077;SDS011;2557;51.390;7.494;2023-11-22T05:27:56;12.35;;;7.40;;
5077;SDS011;2557;51.390;7.494;2023-11-22T05:30:22;12.35;;;9.20;;
5077;SDS011;2557;51.390;7.494;2023-11-22T05:32:48;17.77;;;9.05;;
5077;SDS011;2557;51.390;7.494;2023-11-22T05:35:14;13.73;;;8.25;;
5077;SDS011;2557;51.390;7.494;2023-11-22T05:37:40;11.80;;;8.40;;
5077;SDS011;2557;51.390;7.494;2023-11-22T05:40:07;11.88;;;8.05;;
5077;SDS011;2557;51.390;7.494;2023-11-22T05:42:35;13.10;;;7.90;;
5077;SDS011;2557;51.390;7.494;2023-11-22T05:45:01;20.23;;;8.35;;
5077;SDS011;2557;51.390;7.494;2023-11-22T05:47:28;14.15;;;8.55;;
5077;SDS011;2557;51.390;7.494;2023-11-22T05:49:54;16.20;;;9.13;;
5077;SDS011;2557;51.390;7.494;2023-11-22T05:52:20;15.40;;;8.30;;
5077;SDS011;2557;51.390;7.494;2023-11-22T05:54:48;15.90;;;10.40;;
5077;SDS011;2557;51.390;7.494;2023-11-22T05:57:14;12.90;;;8.67;;
5077;SDS011;2557;51.390;7.494;2023-11-22T05:59:40;12.90;;;8.20;;
5077;SDS011;2557;51.390;7.494;2023-11-22T06:02:06;20.00;;;8.15;;
5077;SDS011;2557;51.390;7.494;2023-11-22T06:04:33;12.27;;;8.98;;
5077;SDS011;2557;51.390;7.494;2023-11-22T06:06:59;15.65;;;8.60;;
5077;SDS011;2557;51.390;7.494;2023-11-22T06:09:25;16.70;;;8.60;;
5077;SDS011;2557;51.390;7.494;2023-11-22T06:11:51;15.32;;;8.45;;
5077;SDS011;2557;51.390;7.494;2023-11-22T06:14:19;15.85;;;8.63;;
5077;SDS011;2557;51.390;7.494;2023-11-22T06:16:45;15.00;;;8.73;;
5077;SDS011;2557;51.390;7.494;2023-11-22T06:19:12;15.93;;;9.30;;
5077;SDS011;2557;51.390;7.494;2023-11-22T06:21:38;13.65;;;8.73;;
5077;SDS011;2557;51.390;7.494;2023-11-22T06:24:04;14.02;;;9.27;;
5077;SDS011;2557;51.390;7.494;2023-11-22T06:26:33;15.23;;;8.45;;
5077;SDS011;2557;51.390;7.494;2023-11-22T06:28:59;15.93;;;8.65;;
5077;SDS011;2557;51.390;7.494;2023-11-22T06:31:25;12.48;;;8.77;;
5077;SDS011;2557;51.390;7.494;2023-11-22T06:33:52;14.93;;;8.77;;
5077;SDS011;2557;51.390;7.494;2023-11-22T06:36:18;22.70;;;12.60;;
5077;SDS011;2557;51.390;7.494;2023-11-22T06:38:44;15.70;;;10.07;;
5077;SDS011;2557;51.390;7.494;2023-11-22T06:41:11;13.88;;;8.77;;
5077;SDS011;2557;51.390;7.494;2023-11-22T06:43:37;15.48;;;9.23;;
5077;SDS011;2557;51.390;7.494;2023-11-22T06:46:03;10.90;;;7.95;;
5077;SDS011;2557;51.390;7.494;2023-11-22T06:48:31;16.70;;;8.32;;
5077;SDS011;2557;51.390;7.494;2023-11-22T06:50:58;15.50;;;9.70;;
5077;SDS011;2557;51.390;7.494;2023-11-22T06:53:24;12.67;;;9.13;;
5077;SDS011;2557;51.390;7.494;2023-11-22T06:55:50;14.38;;;9.30;;
5077;SDS011;2557;51.390;7.494;2023-11-22T06:58:17;11.18;;;7.63;;
5077;SDS011;2557;51.390;7.494;2023-11-22T07:00:44;16.45;;;10.45;;
5077;SDS011;2557;51.390;7.494;2023-11-22T07:03:10;15.95;;;9.55;;
5077;SDS011;2557;51.390;7.494;2023-11-22T07:05:37;15.82;;;9.63;;
5077;SDS011;2557;51.390;7.494;2023-11-22T07:08:03;14.45;;;8.85;;
5077;SDS011;2557;51.390;7.494;2023-11-22T07:10:29;25.13;;;10.90;;
5077;SDS011;2557;51.390;7.494;2023-11-22T07:12:59;19.63;;;12.07;;
5077;SDS011;2557;51.390;7.494;2023-11-22T07:15:26;15.52;;;9.88;;
5077;SDS011;2557;51.390;7.494;2023-11-22T07:17:52;19.38;;;11.88;;
5077;SDS011;2557;51.390;7.494;2023-11-22T07:20:19;16.88;;;9.45;;
5077;SDS011;2557;51.390;7.494;2023-11-22T07:22:45;21.05;;;9.88;;
5077;SDS011;2557;51.390;7.494;2023-11-22T07:25:12;17.92;;;10.25;;
5077;SDS011;2557;51.390;7.494;2023-11-22T07:27:46;19.20;;;11.00;;
5077;SDS011;2557;51.390;7.494;2023-11-22T07:30:15;15.13;;;8.90;;
5077;SDS011;2557;51.390;7.494;2023-11-22T07:32:44;26.02;;;10.43;;
5077;SDS011;2557;51.390;7.494;2023-11-22T07:35:10;28.52;;;11.02;;
5077;SDS011;2557;51.390;7.494;2023-11-22T07:37:37;23.40;;;9.98;;
5077;SDS011;2557;51.390;7.494;2023-11-22T07:40:09;18.98;;;9.90;;
5077;SDS011;2557;51.390;7.494;2023-11-22T07:42:38;21.02;;;11.93;;
5077;SDS011;2557;51.390;7.494;2023-11-22T07:45:04;18.33;;;11.02;;
5077;SDS011;2557;51.390;7.494;2023-11-22T07:47:30;19.58;;;9.70;;
5077;SDS011;2557;51.390;7.494;2023-11-22T07:49:56;21.92;;;10.48;;
5077;SDS011;2557;51.390;7.494;2023-11-22T07:52:26;16.52;;;10.18;;
5077;SDS011;2557;51.390;7.494;2023-11-22T07:54:57;22.88;;;12.23;;
5077;SDS011;2557;51.390;7.494;2023-11-22T07:57:24;18.10;;;10.73;;
5077;SDS011;2557;51.390;7.494;2023-11-22T07:59:50;14.13;;;10.88;;
5077;SDS011;2557;51.390;7.494;2023-11-22T08:02:19;17.70;;;11.52;;
5077;SDS011;2557;51.390;7.494;2023-11-22T08:04:45;17.42;;;10.57;;
5077;SDS011;2557;51.390;7.494;2023-11-22T08:07:13;22.38;;;11.98;;
5077;SDS011;2557;51.390;7.494;2023-11-22T08:09:43;21.25;;;11.23;;
5077;SDS011;2557;51.390;7.494;2023-11-22T08:12:09;17.90;;;10.13;;
5077;SDS011;2557;51.390;7.494;2023-11-22T08:14:36;19.55;;;11.30;;
5077;SDS011;2557;51.390;7.494;2023-11-22T08:17:02;18.77;;;10.38;;
5077;SDS011;2557;51.390;7.494;2023-11-22T08:19:28;17.23;;;11.27;;
5077;SDS011;2557;51.390;7.494;2023-11-22T08:21:55;17.50;;;10.75;;
5077;SDS011;2557;51.390;7.494;2023-11-22T08:24:21;15.30;;;10.82;;
5077;SDS011;2557;51.390;7.494;2023-11-22T08:26:47;15.88;;;10.27;;
5077;SDS011;2557;51.390;7.494;2023-11-22T08:29:13;16.17;;;10.40;;
5077;SDS011;2557;51.390;7.494;2023-11-22T08:31:39;17.90;;;10.93;;
5077;SDS011;2557;51.390;7.494;2023-11-22T08:34:06;17.15;;;11.43;;
5077;SDS011;2557;51.390;7.494;2023-11-22T08:36:32;16.85;;;9.32;;
5077;SDS011;2557;51.390;7.494;2023-11-22T08:38:59;17.27;;;10.07;;
5077;SDS011;2557;51.390;7.494;2023-11-22T08:41:26;9.23;;;8.27;;
5077;SDS011;2557;51.390;7.494;2023-11-22T08:43:52;9.53;;;7.83;;
5077;SDS011;2557;51.390;7.494;2023-11-22T08:46:18;8.30;;;7.47;;
